Garden City, Kansas
Current Conditions -  °F | °C
As of 5:54 AM on Monday 24 Nov 2014 (Local Time) from KGCK Reporting Station
Clear Clear  
Wind Chill: -7°   Ceiling: Unl
Heat Index: -2°   Visibility: 10mi
Dew Point: -8°   Wind: 13mph
Humidity: 61%   Direction: 280°W
Pressure: 29.87"   Gusts: NA
Location:  37.97°N, 100.87°W
Report Text: KGCK 241154Z AUTO 28011KT 10SM CLR M02/M08 A2987 RMK AO2 SLP126 T10171083 10006 21022 52007
Loading
Personal Weather Stations






























Interactive Weather Map New forecast layout! Learn more

10-Day Weather Forecast

Advertisements
Track Severe Weather on mobile